sensor_id;sensor_type;location;lat;lon;timestamp;pressure;altitude;pressure_sealevel;temperature;humidity
74594;BME280;63097;51.872;4.460;2023-06-22T00:02:00;102085.19;;;18.29;79.71
74594;BME280;63097;51.872;4.460;2023-06-22T00:04:26;102082.59;;;18.23;79.49
74594;BME280;63097;51.872;4.460;2023-06-22T00:06:52;102095.00;;;18.27;80.62
74594;BME280;63097;51.872;4.460;2023-06-22T00:09:17;102081.41;;;18.08;80.61
74594;BME280;63097;51.872;4.460;2023-06-22T00:11:42;102095.56;;;18.24;81.33
74594;BME280;63097;51.872;4.460;2023-06-22T00:14:08;102089.38;;;18.22;81.07
74594;BME280;63097;51.872;4.460;2023-06-22T00:16:34;102081.72;;;18.17;81.58
74594;BME280;63097;51.872;4.460;2023-06-22T00:19:00;102076.56;;;18.04;81.62
74594;BME280;63097;51.872;4.460;2023-06-22T00:21:29;102072.34;;;18.01;82.43
74594;BME280;63097;51.872;4.460;2023-06-22T00:23:54;102075.78;;;18.08;81.98
74594;BME280;63097;51.872;4.460;2023-06-22T00:26:20;102081.63;;;18.02;81.89
74594;BME280;63097;51.872;4.460;2023-06-22T00:28:45;102072.94;;;18.03;81.87
74594;BME280;63097;51.872;4.460;2023-06-22T00:31:10;102077.69;;;17.98;82.07
74594;BME280;63097;51.872;4.460;2023-06-22T00:33:36;102057.31;;;17.86;82.33
74594;BME280;63097;51.872;4.460;2023-06-22T00:36:01;102076.75;;;17.87;82.71
74594;BME280;63097;51.872;4.460;2023-06-22T00:41:29;102052.41;;;17.66;82.29
74594;BME280;63097;51.872;4.460;2023-06-22T00:43:54;102041.94;;;17.62;82.59
74594;BME280;63097;51.872;4.460;2023-06-22T00:46:21;102060.59;;;17.73;82.40
74594;BME280;63097;51.872;4.460;2023-06-22T00:48:46;102071.56;;;17.69;81.97
74594;BME280;63097;51.872;4.460;2023-06-22T00:51:12;102062.59;;;17.72;81.92
74594;BME280;63097;51.872;4.460;2023-06-22T00:53:37;102049.03;;;17.69;82.13
74594;BME280;63097;51.872;4.460;2023-06-22T00:56:03;102073.28;;;17.75;81.93
74594;BME280;63097;51.872;4.460;2023-06-22T00:58:29;102050.66;;;17.60;81.47
74594;BME280;63097;51.872;4.460;2023-06-22T01:00:55;102053.78;;;17.64;81.29
74594;BME280;63097;51.872;4.460;2023-06-22T01:03:20;102065.13;;;17.74;80.73
74594;BME280;63097;51.872;4.460;2023-06-22T01:05:46;102050.75;;;17.70;79.26
74594;BME280;63097;51.872;4.460;2023-06-22T01:13:22;102040.53;;;17.59;79.35
74594;BME280;63097;51.872;4.460;2023-06-22T01:15:53;102058.34;;;17.70;79.58
74594;BME280;63097;51.872;4.460;2023-06-22T01:18:22;102044.53;;;17.63;78.74
74594;BME280;63097;51.872;4.460;2023-06-22T01:20:50;102057.44;;;17.59;78.68
74594;BME280;63097;51.872;4.460;2023-06-22T01:26:37;102049.69;;;17.45;79.71
74594;BME280;63097;51.872;4.460;2023-06-22T01:29:04;102045.41;;;17.37;79.86
74594;BME280;63097;51.872;4.460;2023-06-22T01:31:31;102063.75;;;17.45;79.91
74594;BME280;63097;51.872;4.460;2023-06-22T01:34:02;102052.78;;;17.43;80.33
74594;BME280;63097;51.872;4.460;2023-06-22T01:36:29;102063.16;;;17.43;80.21
74594;BME280;63097;51.872;4.460;2023-06-22T01:38:56;102054.78;;;17.48;80.04
74594;BME280;63097;51.872;4.460;2023-06-22T01:41:25;102068.59;;;17.49;80.17
74594;BME280;63097;51.872;4.460;2023-06-22T01:43:51;102058.72;;;17.47;79.77
74594;BME280;63097;51.872;4.460;2023-06-22T01:46:18;102038.66;;;17.38;80.06
74594;BME280;63097;51.872;4.460;2023-06-22T01:48:43;102056.09;;;17.40;80.17
74594;BME280;63097;51.872;4.460;2023-06-22T01:51:09;102017.09;;;17.17;80.48
74594;BME280;63097;51.872;4.460;2023-06-22T01:53:35;102038.00;;;17.26;81.37
74594;BME280;63097;51.872;4.460;2023-06-22T01:56:00;102069.81;;;17.32;81.44
74594;BME280;63097;51.872;4.460;2023-06-22T01:58:27;102064.19;;;17.32;81.72
74594;BME280;63097;51.872;4.460;2023-06-22T02:01:20;102062.75;;;17.29;81.24
74594;BME280;63097;51.872;4.460;2023-06-22T02:04:19;102055.16;;;17.25;81.31
74594;BME280;63097;51.872;4.460;2023-06-22T02:06:46;102052.53;;;17.18;82.10
74594;BME280;63097;51.872;4.460;2023-06-22T02:09:16;102031.06;;;17.07;82.28
74594;BME280;63097;51.872;4.460;2023-06-22T02:11:44;102026.00;;;17.04;83.08
74594;BME280;63097;51.872;4.460;2023-06-22T02:14:11;102053.34;;;17.14;83.68
74594;BME280;63097;51.872;4.460;2023-06-22T02:16:38;102048.25;;;17.10;83.92
74594;BME280;63097;51.872;4.460;2023-06-22T02:19:03;102040.94;;;17.09;83.89
74594;BME280;63097;51.872;4.460;2023-06-22T02:21:29;102042.38;;;17.12;84.27
74594;BME280;63097;51.872;4.460;2023-06-22T02:23:54;102038.41;;;17.08;84.51
74594;BME280;63097;51.872;4.460;2023-06-22T02:26:20;102023.19;;;17.04;84.68
74594;BME280;63097;51.872;4.460;2023-06-22T02:28:45;102021.25;;;17.09;84.86
74594;BME280;63097;51.872;4.460;2023-06-22T02:31:11;102022.91;;;17.05;85.36
74594;BME280;63097;51.872;4.460;2023-06-22T02:33:36;102028.94;;;17.19;85.88
74594;BME280;63097;51.872;4.460;2023-06-22T02:36:01;102027.53;;;17.22;86.05
74594;BME280;63097;51.872;4.460;2023-06-22T02:38:27;102012.59;;;17.16;86.13
74594;BME280;63097;51.872;4.460;2023-06-22T02:40:52;102030.94;;;17.24;86.27
74594;BME280;63097;51.872;4.460;2023-06-22T02:43:17;102026.91;;;17.15;86.30
74594;BME280;63097;51.872;4.460;2023-06-22T02:45:43;102036.53;;;17.19;87.04
74594;BME280;63097;51.872;4.460;2023-06-22T02:48:08;102042.47;;;17.22;87.21
74594;BME280;63097;51.872;4.460;2023-06-22T02:50:33;102038.63;;;17.33;87.45
74594;BME280;63097;51.872;4.460;2023-06-22T02:52:59;102046.78;;;17.35;87.16
74594;BME280;63097;51.872;4.460;2023-06-22T02:55:24;102026.97;;;17.20;87.49
74594;BME280;63097;51.872;4.460;2023-06-22T02:57:49;102049.53;;;17.25;87.34
74594;BME280;63097;51.872;4.460;2023-06-22T03:00:15;102037.31;;;17.14;87.91
74594;BME280;63097;51.872;4.460;2023-06-22T03:02:40;102048.63;;;17.19;88.16
74594;BME280;63097;51.872;4.460;2023-06-22T03:05:06;102051.13;;;17.16;88.16
74594;BME280;63097;51.872;4.460;2023-06-22T03:07:31;102039.78;;;17.05;88.17
74594;BME280;63097;51.872;4.460;2023-06-22T03:09:56;102030.31;;;17.17;88.69
74594;BME280;63097;51.872;4.460;2023-06-22T03:12:22;102032.53;;;17.15;89.17
74594;BME280;63097;51.872;4.460;2023-06-22T03:14:47;102030.28;;;17.12;89.66
74594;BME280;63097;51.872;4.460;2023-06-22T03:17:12;102004.84;;;16.96;89.61
74594;BME280;63097;51.872;4.460;2023-06-22T03:19:37;102026.88;;;17.09;90.15
74594;BME280;63097;51.872;4.460;2023-06-22T03:22:03;102025.00;;;17.20;89.57
74594;BME280;63097;51.872;4.460;2023-06-22T03:24:28;102014.34;;;17.22;90.44
74594;BME280;63097;51.872;4.460;2023-06-22T03:26:54;102019.38;;;17.20;90.14
74594;BME280;63097;51.872;4.460;2023-06-22T03:29:19;101998.75;;;17.09;90.68
74594;BME280;63097;51.872;4.460;2023-06-22T03:31:44;101996.75;;;17.05;90.66
74594;BME280;63097;51.872;4.460;2023-06-22T03:34:10;102012.28;;;17.13;90.77
74594;BME280;63097;51.872;4.460;2023-06-22T03:36:35;102018.00;;;17.23;90.47
74594;BME280;63097;51.872;4.460;2023-06-22T03:39:00;101993.09;;;17.04;90.65
74594;BME280;63097;51.872;4.460;2023-06-22T03:41:26;102011.69;;;17.10;90.49
74594;BME280;63097;51.872;4.460;2023-06-22T03:43:51;102012.78;;;17.04;91.13
74594;BME280;63097;51.872;4.460;2023-06-22T03:46:16;102006.31;;;17.04;91.29
74594;BME280;63097;51.872;4.460;2023-06-22T03:48:42;102014.47;;;17.05;91.60
74594;BME280;63097;51.872;4.460;2023-06-22T03:51:07;101999.34;;;17.12;91.28
74594;BME280;63097;51.872;4.460;2023-06-22T03:53:32;102007.19;;;17.09;92.07
74594;BME280;63097;51.872;4.460;2023-06-22T03:55:58;102010.03;;;17.15;92.42
74594;BME280;63097;51.872;4.460;2023-06-22T03:58:23;102002.78;;;17.19;92.51
74594;BME280;63097;51.872;4.460;2023-06-22T04:00:50;102002.78;;;17.19;92.42
74594;BME280;63097;51.872;4.460;2023-06-22T04:03:16;101997.50;;;17.27;91.99
74594;BME280;63097;51.872;4.460;2023-06-22T04:05:42;101988.81;;;17.29;91.94
74594;BME280;63097;51.872;4.460;2023-06-22T04:08:08;101998.97;;;17.35;91.88
74594;BME280;63097;51.872;4.460;2023-06-22T04:10:33;101968.28;;;17.33;91.32
74594;BME280;63097;51.872;4.460;2023-06-22T04:12:59;101993.50;;;17.55;91.09
74594;BME280;63097;51.872;4.460;2023-06-22T04:15:24;101994.13;;;17.62;91.25
74594;BME280;63097;51.872;4.460;2023-06-22T04:17:50;101979.50;;;17.60;90.61
74594;BME280;63097;51.872;4.460;2023-06-22T04:20:15;102003.19;;;17.69;90.72
74594;BME280;63097;51.872;4.460;2023-06-22T04:22:40;101998.44;;;17.74;90.28
74594;BME280;63097;51.872;4.460;2023-06-22T04:25:06;102003.22;;;17.79;90.60
74594;BME280;63097;51.872;4.460;2023-06-22T04:27:32;102006.03;;;17.79;90.41
74594;BME280;63097;51.872;4.460;2023-06-22T04:29:57;102008.09;;;17.93;89.80
74594;BME280;63097;51.872;4.460;2023-06-22T04:32:22;102005.31;;;17.98;88.92
74594;BME280;63097;51.872;4.460;2023-06-22T04:34:48;102002.00;;;18.12;88.36
74594;BME280;63097;51.872;4.460;2023-06-22T04:37:13;102028.84;;;18.29;87.96
74594;BME280;63097;51.872;4.460;2023-06-22T04:39:38;102006.31;;;18.34;87.15
74594;BME280;63097;51.872;4.460;2023-06-22T04:42:04;102023.56;;;18.43;87.31
74594;BME280;63097;51.872;4.460;2023-06-22T04:44:29;102034.22;;;18.41;87.45
74594;BME280;63097;51.872;4.460;2023-06-22T04:46:59;102020.75;;;18.43;87.67
74594;BME280;63097;51.872;4.460;2023-06-22T04:49:24;102031.19;;;18.47;87.64
74594;BME280;63097;51.872;4.460;2023-06-22T04:51:49;102018.22;;;18.46;87.02
74594;BME280;63097;51.872;4.460;2023-06-22T04:54:15;102014.28;;;18.47;86.86
74594;BME280;63097;51.872;4.460;2023-06-22T04:56:40;102025.00;;;18.55;86.82
74594;BME280;63097;51.872;4.460;2023-06-22T04:59:05;102030.63;;;18.50;86.81
74594;BME280;63097;51.872;4.460;2023-06-22T05:01:31;102027.53;;;18.52;87.18
74594;BME280;63097;51.872;4.460;2023-06-22T05:03:56;102019.13;;;18.62;85.66
74594;BME280;63097;51.872;4.460;2023-06-22T05:06:23;102007.28;;;18.65;85.35
74594;BME280;63097;51.872;4.460;2023-06-22T05:08:48;102015.78;;;18.80;85.70
74594;BME280;63097;51.872;4.460;2023-06-22T05:11:13;102001.97;;;18.83;84.17
74594;BME280;63097;51.872;4.460;2023-06-22T05:13:39;102020.31;;;18.96;84.48
74594;BME280;63097;51.872;4.460;2023-06-22T05:16:04;102024.25;;;19.10;84.48
74594;BME280;63097;51.872;4.460;2023-06-22T05:18:30;102000.31;;;19.08;83.31
74594;BME280;63097;51.872;4.460;2023-06-22T05:20:56;102011.00;;;19.31;82.49
74594;BME280;63097;51.872;4.460;2023-06-22T05:23:21;102021.44;;;19.30;81.87
74594;BME280;63097;51.872;4.460;2023-06-22T05:25:49;102022.31;;;19.26;81.90
74594;BME280;63097;51.872;4.460;2023-06-22T05:28:15;102008.19;;;19.16;81.97
74594;BME280;63097;51.872;4.460;2023-06-22T05:30:40;102006.22;;;19.21;81.71
74594;BME280;63097;51.872;4.460;2023-06-22T05:33:05;101995.19;;;19.25;80.81
74594;BME280;63097;51.872;4.460;2023-06-22T05:35:31;101998.06;;;19.40;80.09
74594;BME280;63097;51.872;4.460;2023-06-22T05:37:56;102012.38;;;19.78;78.79
74594;BME280;63097;51.872;4.460;2023-06-22T05:40:21;102012.94;;;19.80;78.17
74594;BME280;63097;51.872;4.460;2023-06-22T05:42:47;102016.91;;;19.74;78.16
74594;BME280;63097;51.872;4.460;2023-06-22T05:45:12;102019.41;;;19.96;77.82
74594;BME280;63097;51.872;4.460;2023-06-22T05:47:38;102009.25;;;19.95;77.08
74594;BME280;63097;51.872;4.460;2023-06-22T05:50:03;102023.88;;;20.07;75.39
74594;BME280;63097;51.872;4.460;2023-06-22T05:52:29;102004.09;;;20.07;76.11
74594;BME280;63097;51.872;4.460;2023-06-22T05:54:54;102011.69;;;20.17;75.13
74594;BME280;63097;51.872;4.460;2023-06-22T05:57:19;102019.91;;;20.23;75.62
74594;BME280;63097;51.872;4.460;2023-06-22T05:59:45;102022.19;;;20.21;74.76
74594;BME280;63097;51.872;4.460;2023-06-22T06:02:10;102025.00;;;20.16;75.45
74594;BME280;63097;51.872;4.460;2023-06-22T06:04:35;102027.81;;;20.16;74.70
74594;BME280;63097;51.872;4.460;2023-06-22T06:07:01;102009.97;;;20.36;73.59
74594;BME280;63097;51.872;4.460;2023-06-22T06:09:26;102023.22;;;20.45;73.19
74594;BME280;63097;51.872;4.460;2023-06-22T06:11:51;102001.16;;;20.42;73.40
74594;BME280;63097;51.872;4.460;2023-06-22T06:14:17;102013.84;;;20.50;72.69
74594;BME280;63097;51.872;4.460;2023-06-22T06:16:42;101995.50;;;20.47;73.23
74594;BME280;63097;51.872;4.460;2023-06-22T06:19:07;102009.44;;;20.77;71.92
74594;BME280;63097;51.872;4.460;2023-06-22T06:21:32;102002.66;;;20.73;71.86
74594;BME280;63097;51.872;4.460;2023-06-22T06:23:58;102003.06;;;21.06;71.59
74594;BME280;63097;51.872;4.460;2023-06-22T06:26:23;102002.28;;;21.29;70.85
74594;BME280;63097;51.872;4.460;2023-06-22T06:28:48;101986.03;;;21.39;69.86
74594;BME280;63097;51.872;4.460;2023-06-22T06:31:14;101993.06;;;21.47;70.52
74594;BME280;63097;51.872;4.460;2023-06-22T06:33:39;102000.84;;;21.60;69.35
74594;BME280;63097;51.872;4.460;2023-06-22T06:36:04;102007.81;;;21.72;69.22
74594;BME280;63097;51.872;4.460;2023-06-22T06:38:30;101999.25;;;21.77;68.26
74594;BME280;63097;51.872;4.460;2023-06-22T06:40:56;102004.00;;;21.87;68.47
74594;BME280;63097;51.872;4.460;2023-06-22T06:43:21;101998.63;;;21.85;68.15
74594;BME280;63097;51.872;4.460;2023-06-22T06:45:47;101993.22;;;21.60;69.20
74594;BME280;63097;51.872;4.460;2023-06-22T06:48:12;102006.34;;;21.80;67.61
74594;BME280;63097;51.872;4.460;2023-06-22T06:50:37;101992.75;;;21.77;67.14
74594;BME280;63097;51.872;4.460;2023-06-22T06:53:03;101988.31;;;21.94;67.02
74594;BME280;63097;51.872;4.460;2023-06-22T06:55:28;101993.03;;;22.04;66.02
74594;BME280;63097;51.872;4.460;2023-06-22T06:57:53;101975.06;;;22.14;64.62
74594;BME280;63097;51.872;4.460;2023-06-22T07:00:19;101989.88;;;22.29;64.56
74594;BME280;63097;51.872;4.460;2023-06-22T07:02:45;101984.91;;;22.63;63.48
74594;BME280;63097;51.872;4.460;2023-06-22T07:05:11;101989.13;;;22.66;63.03
74594;BME280;63097;51.872;4.460;2023-06-22T07:07:37;101978.44;;;22.76;62.44
74594;BME280;63097;51.872;4.460;2023-06-22T07:10:04;101979.75;;;23.03;61.13
74594;BME280;63097;51.872;4.460;2023-06-22T07:12:30;101979.06;;;23.11;60.82
74594;BME280;63097;51.872;4.460;2023-06-22T07:15:04;101968.31;;;23.08;60.60
74594;BME280;63097;51.872;4.460;2023-06-22T07:17:30;101943.44;;;23.18;59.99
74594;BME280;63097;51.872;4.460;2023-06-22T07:19:55;101956.28;;;23.61;59.33
74594;BME280;63097;51.872;4.460;2023-06-22T07:22:20;101947.59;;;23.71;58.54
74594;BME280;63097;51.872;4.460;2023-06-22T07:24:46;101974.09;;;23.94;58.07
74594;BME280;63097;51.872;4.460;2023-06-22T07:27:11;101953.28;;;23.99;57.53
74594;BME280;63097;51.872;4.460;2023-06-22T07:29:36;101944.97;;;24.16;57.86
74594;BME280;63097;51.872;4.460;2023-06-22T07:32:02;101969.09;;;24.32;56.36
74594;BME280;63097;51.872;4.460;2023-06-22T07:34:27;101951.50;;;24.16;56.65
74594;BME280;63097;51.872;4.460;2023-06-22T07:36:52;101961.38;;;24.32;56.39
74594;BME280;63097;51.872;4.460;2023-06-22T07:39:18;101959.47;;;24.55;55.42
74594;BME280;63097;51.872;4.460;2023-06-22T07:41:43;101945.19;;;24.68;55.37
74594;BME280;63097;51.872;4.460;2023-06-22T07:44:09;101967.78;;;24.51;56.66
74594;BME280;63097;51.872;4.460;2023-06-22T07:46:35;101965.06;;;24.19;55.75
74594;BME280;63097;51.872;4.460;2023-06-22T07:49:01;101948.13;;;24.28;55.59
74594;BME280;63097;51.872;4.460;2023-06-22T07:51:26;101965.06;;;24.33;56.34
74594;BME280;63097;51.872;4.460;2023-06-22T07:53:52;101956.34;;;24.43;54.67
74594;BME280;63097;51.872;4.460;2023-06-22T07:56:17;101947.16;;;24.46;54.46
74594;BME280;63097;51.872;4.460;2023-06-22T07:58:42;101947.81;;;24.43;54.85
74594;BME280;63097;51.872;4.460;2023-06-22T08:01:08;101937.81;;;24.67;53.37
74594;BME280;63097;51.872;4.460;2023-06-22T08:03:33;101929.38;;;24.98;52.50
74594;BME280;63097;51.872;4.460;2023-06-22T08:05:58;101935.16;;;25.29;51.36
74594;BME280;63097;51.872;4.460;2023-06-22T08:08:24;101935.72;;;25.61;49.98
74594;BME280;63097;51.872;4.460;2023-06-22T08:10:49;101926.03;;;25.40;50.55
74594;BME280;63097;51.872;4.460;2023-06-22T08:13:14;101934.78;;;25.74;49.37
74594;BME280;63097;51.872;4.460;2023-06-22T08:15:40;101916.84;;;25.82;48.62
74594;BME280;63097;51.872;4.460;2023-06-22T08:18:05;101934.66;;;26.36;48.02
74594;BME280;63097;51.872;4.460;2023-06-22T08:20:32;101918.03;;;26.29;47.33
74594;BME280;63097;51.872;4.460;2023-06-22T08:22:57;101936.44;;;26.06;46.69
74594;BME280;63097;51.872;4.460;2023-06-22T08:25:22;101928.66;;;26.46;45.59
74594;BME280;63097;51.872;4.460;2023-06-22T08:27:47;101915.88;;;26.35;44.94
74594;BME280;63097;51.872;4.460;2023-06-22T08:30:13;101911.03;;;26.52;44.90
74594;BME280;63097;51.872;4.460;2023-06-22T08:32:39;101923.00;;;26.80;44.88
74594;BME280;63097;51.872;4.460;2023-06-22T08:35:04;101925.16;;;27.09;43.50
74594;BME280;63097;51.872;4.460;2023-06-22T08:37:30;101915.41;;;27.10;42.99
74594;BME280;63097;51.872;4.460;2023-06-22T08:39:59;101921.25;;;27.22;42.18
74594;BME280;63097;51.872;4.460;2023-06-22T08:42:24;101913.22;;;27.32;42.60
74594;BME280;63097;51.872;4.460;2023-06-22T08:44:50;101928.28;;;27.58;42.26
74594;BME280;63097;51.872;4.460;2023-06-22T08:47:15;101914.25;;;26.85;41.38
74594;BME280;63097;51.872;4.460;2023-06-22T08:49:40;101915.09;;;26.77;41.44
74594;BME280;63097;51.872;4.460;2023-06-22T08:52:06;101927.69;;;26.93;41.85
74594;BME280;63097;51.872;4.460;2023-06-22T08:54:32;101933.19;;;26.64;42.62
74594;BME280;63097;51.872;4.460;2023-06-22T08:56:57;101921.28;;;26.53;42.51
74594;BME280;63097;51.872;4.460;2023-06-22T08:59:22;101921.31;;;26.88;41.84
74594;BME280;63097;51.872;4.460;2023-06-22T09:01:47;101908.72;;;26.97;43.07
74594;BME280;63097;51.872;4.460;2023-06-22T09:04:13;101904.16;;;27.13;42.14
74594;BME280;63097;51.872;4.460;2023-06-22T09:06:38;101902.28;;;27.26;43.12
74594;BME280;63097;51.872;4.460;2023-06-22T09:09:03;101890.53;;;27.19;41.59
74594;BME280;63097;51.872;4.460;2023-06-22T09:11:28;101897.06;;;27.28;42.01
74594;BME280;63097;51.872;4.460;2023-06-22T09:13:54;101894.34;;;27.40;43.00
74594;BME280;63097;51.872;4.460;2023-06-22T09:16:19;101903.59;;;27.45;42.29
74594;BME280;63097;51.872;4.460;2023-06-22T09:18:48;101902.63;;;27.33;44.58
74594;BME280;63097;51.872;4.460;2023-06-22T09:21:16;101900.88;;;27.49;44.49
74594;BME280;63097;51.872;4.460;2023-06-22T09:23:42;101900.59;;;27.16;43.27
74594;BME280;63097;51.872;4.460;2023-06-22T09:26:08;101904.66;;;27.15;43.12
74594;BME280;63097;51.872;4.460;2023-06-22T09:28:34;101908.19;;;27.21;43.24
74594;BME280;63097;51.872;4.460;2023-06-22T09:30:59;101903.47;;;27.16;44.77
74594;BME280;63097;51.872;4.460;2023-06-22T09:33:25;101904.50;;;27.03;45.47
74594;BME280;63097;51.872;4.460;2023-06-22T09:35:51;101892.59;;;26.84;48.05
74594;BME280;63097;51.872;4.460;2023-06-22T09:38:16;101897.88;;;26.17;47.60
74594;BME280;63097;51.872;4.460;2023-06-22T09:40:42;101877.44;;;26.58;47.63
74594;BME280;63097;51.872;4.460;2023-06-22T09:43:07;101872.44;;;26.72;48.72
74594;BME280;63097;51.872;4.460;2023-06-22T09:45:33;101892.09;;;26.73;48.09
74594;BME280;63097;51.872;4.460;2023-06-22T09:47:58;101883.66;;;26.51;49.83
74594;BME280;63097;51.872;4.460;2023-06-22T09:50:23;101885.19;;;26.66;48.40
74594;BME280;63097;51.872;4.460;2023-06-22T09:52:48;101889.72;;;26.93;48.44
74594;BME280;63097;51.872;4.460;2023-06-22T09:55:14;101889.03;;;27.04;49.95
74594;BME280;63097;51.872;4.460;2023-06-22T09:57:39;101880.78;;;26.43;49.67
74594;BME280;63097;51.872;4.460;2023-06-22T10:00:06;101889.84;;;26.45;50.05
74594;BME280;63097;51.872;4.460;2023-06-22T10:02:32;101895.75;;;25.92;52.15
74594;BME280;63097;51.872;4.460;2023-06-22T10:04:57;101882.47;;;26.52;50.03
74594;BME280;63097;51.872;4.460;2023-06-22T10:07:22;101888.03;;;26.57;48.09
74594;BME280;63097;51.872;4.460;2023-06-22T10:09:48;101892.09;;;26.82;48.28
74594;BME280;63097;51.872;4.460;2023-06-22T10:12:13;101891.75;;;26.83;49.96
74594;BME280;63097;51.872;4.460;2023-06-22T10:14:38;101883.97;;;26.33;51.79
74594;BME280;63097;51.872;4.460;2023-06-22T10:17:04;101894.56;;;26.58;50.79
74594;BME280;63097;51.872;4.460;2023-06-22T10:19:29;101867.72;;;26.33;49.75
74594;BME280;63097;51.872;4.460;2023-06-22T10:21:55;101886.00;;;26.32;51.84
74594;BME280;63097;51.872;4.460;2023-06-22T10:24:20;101865.00;;;26.11;51.83
74594;BME280;63097;51.872;4.460;2023-06-22T10:26:45;101885.94;;;26.07;52.23
74594;BME280;63097;51.872;4.460;2023-06-22T10:29:10;101897.06;;;26.17;51.21
74594;BME280;63097;51.872;4.460;2023-06-22T10:31:36;101884.88;;;26.03;53.06
74594;BME280;63097;51.872;4.460;2023-06-22T10:34:01;101892.72;;;25.80;51.94
74594;BME280;63097;51.872;4.460;2023-06-22T10:36:26;101891.66;;;25.67;51.87
74594;BME280;63097;51.872;4.460;2023-06-22T10:38:52;101891.28;;;25.60;51.81
74594;BME280;63097;51.872;4.460;2023-06-22T10:41:17;101895.53;;;25.41;51.16
74594;BME280;63097;51.872;4.460;2023-06-22T10:43:42;101897.63;;;25.27;51.04
74594;BME280;63097;51.872;4.460;2023-06-22T10:46:09;101897.97;;;25.56;51.46
74594;BME280;63097;51.872;4.460;2023-06-22T10:48:37;101897.47;;;25.93;49.67
74594;BME280;63097;51.872;4.460;2023-06-22T10:51:02;101897.81;;;26.00;49.98
74594;BME280;63097;51.872;4.460;2023-06-22T10:53:27;101891.09;;;25.96;48.62
74594;BME280;63097;51.872;4.460;2023-06-22T10:55:53;101901.69;;;26.04;48.46
74594;BME280;63097;51.872;4.460;2023-06-22T10:58:18;101889.13;;;25.66;48.52
74594;BME280;63097;51.872;4.460;2023-06-22T11:00:44;101900.44;;;25.88;49.82
74594;BME280;63097;51.872;4.460;2023-06-22T11:03:09;101891.50;;;25.72;48.41
74594;BME280;63097;51.872;4.460;2023-06-22T11:05:34;101900.25;;;25.76;50.01
74594;BME280;63097;51.872;4.460;2023-06-22T11:07:59;101901.53;;;25.61;49.21
74594;BME280;63097;51.872;4.460;2023-06-22T11:10:25;101901.91;;;25.38;51.15
74594;BME280;63097;51.872;4.460;2023-06-22T11:12:50;101899.97;;;25.55;51.27
74594;BME280;63097;51.872;4.460;2023-06-22T11:15:15;101880.81;;;25.47;52.03
74594;BME280;63097;51.872;4.460;2023-06-22T11:17:41;101889.13;;;25.66;51.51
74594;BME280;63097;51.872;4.460;2023-06-22T11:20:07;101889.50;;;25.42;54.22
74594;BME280;63097;51.872;4.460;2023-06-22T11:22:32;101890.50;;;25.38;53.54
74594;BME280;63097;51.872;4.460;2023-06-22T11:24:57;101884.97;;;25.11;54.04
74594;BME280;63097;51.872;4.460;2023-06-22T11:27:24;101877.84;;;25.00;54.02
74594;BME280;63097;51.872;4.460;2023-06-22T11:29:49;101869.41;;;25.17;53.06
74594;BME280;63097;51.872;4.460;2023-06-22T11:32:15;101874.75;;;25.18;53.97
74594;BME280;63097;51.872;4.460;2023-06-22T11:34:40;101855.97;;;25.09;52.16
74594;BME280;63097;51.872;4.460;2023-06-22T11:37:05;101860.84;;;25.17;51.47
74594;BME280;63097;51.872;4.460;2023-06-22T11:39:31;101858.16;;;25.12;50.85
74594;BME280;63097;51.872;4.460;2023-06-22T11:41:56;101846.38;;;25.05;53.12
74594;BME280;63097;51.872;4.460;2023-06-22T11:44:21;101834.72;;;24.92;52.70
74594;BME280;63097;51.872;4.460;2023-06-22T11:46:47;101824.41;;;24.74;53.25
74594;BME280;63097;51.872;4.460;2023-06-22T11:49:12;101822.84;;;24.68;53.48
74594;BME280;63097;51.872;4.460;2023-06-22T11:51:37;101846.97;;;24.93;52.31
74594;BME280;63097;51.872;4.460;2023-06-22T11:54:03;101837.16;;;24.77;52.61
74594;BME280;63097;51.872;4.460;2023-06-22T11:56:28;101826.63;;;24.77;52.58
74594;BME280;63097;51.872;4.460;2023-06-22T11:58:53;101829.56;;;24.95;52.54
74594;BME280;63097;51.872;4.460;2023-06-22T12:01:19;101814.31;;;24.68;53.63
74594;BME280;63097;51.872;4.460;2023-06-22T12:03:44;101805.72;;;24.82;54.16
74594;BME280;63097;51.872;4.460;2023-06-22T12:06:09;101815.69;;;25.02;53.48
74594;BME280;63097;51.872;4.460;2023-06-22T12:08:35;101818.06;;;25.00;54.33
74594;BME280;63097;51.872;4.460;2023-06-22T12:11:00;101802.38;;;25.11;53.24
74594;BME280;63097;51.872;4.460;2023-06-22T12:13:25;101819.84;;;25.18;54.70
74594;BME280;63097;51.872;4.460;2023-06-22T12:15:51;101808.66;;;25.30;54.21
74594;BME280;63097;51.872;4.460;2023-06-22T12:18:17;101816.84;;;25.23;55.21
74594;BME280;63097;51.872;4.460;2023-06-22T12:20:42;101812.41;;;25.39;55.13
74594;BME280;63097;51.872;4.460;2023-06-22T12:23:08;101798.25;;;25.25;56.07
74594;BME280;63097;51.872;4.460;2023-06-22T12:25:33;101809.66;;;25.25;56.42
74594;BME280;63097;51.872;4.460;2023-06-22T12:27:58;101809.41;;;25.44;55.88
74594;BME280;63097;51.872;4.460;2023-06-22T12:30:24;101777.31;;;25.30;55.38
74594;BME280;63097;51.872;4.460;2023-06-22T12:32:49;101802.28;;;25.33;56.55
74594;BME280;63097;51.872;4.460;2023-06-22T12:35:14;101791.38;;;25.26;56.14
74594;BME280;63097;51.872;4.460;2023-06-22T12:37:41;101793.13;;;25.05;57.38
74594;BME280;63097;51.872;4.460;2023-06-22T12:40:08;101795.72;;;24.93;58.40
74594;BME280;63097;51.872;4.460;2023-06-22T12:42:33;101797.88;;;24.87;58.56
74594;BME280;63097;51.872;4.460;2023-06-22T12:44:58;101806.56;;;24.82;59.04
74594;BME280;63097;51.872;4.460;2023-06-22T12:47:24;101791.59;;;24.55;60.36
74594;BME280;63097;51.872;4.460;2023-06-22T12:49:49;101807.81;;;24.32;59.58
74594;BME280;63097;51.872;4.460;2023-06-22T12:52:14;101789.03;;;24.09;62.36
74594;BME280;63097;51.872;4.460;2023-06-22T12:54:40;101788.97;;;23.87;62.87